Time;durP1;ratioP1;P1;durP2;ratioP2;P2;SDS_P1;SDS_P2;PMS_P1;PMS_P2;Temp;Humidity;BMP_temperature;BMP_pressure;BME280_temperature;BME280_humidity;BME280_pressure;Samples;Min_cycle;Max_cycle;Signal;HPM_P1;HPM_P2
2023/11/23 00:00:15;;;;;;;28.93;15.27;;;9.90;99.90;;;;;;7288902;19;20190;-79
2023/11/23 00:02:41;;;;;;;28.90;15.40;;;9.80;99.90;;;;;;7289056;19;20206;-79
2023/11/23 00:05:08;;;;;;;31.47;14.60;;;9.80;99.90;;;;;;7287863;19;20724;-79
2023/11/23 00:07:34;;;;;;;33.33;14.60;;;9.70;99.90;;;;;;7289805;19;20182;-78
2023/11/23 00:10:00;;;;;;;29.17;15.03;;;9.80;99.90;;;;;;7310719;19;20274;-79
2023/11/23 00:12:26;;;;;;;31.67;15.67;;;9.90;99.90;;;;;;7288530;19;20185;-79
2023/11/23 00:14:51;;;;;;;29.43;14.27;;;9.90;99.90;;;;;;7286608;19;20683;-79
2023/11/23 00:17:18;;;;;;;30.20;14.63;;;10.10;99.90;;;;;;7287211;19;20209;-79
2023/11/23 00:19:46;;;;;;;33.67;15.13;;;10.10;99.90;;;;;;7288784;19;20214;-79
2023/11/23 00:22:13;;;;;;;29.80;14.83;;;10.10;99.90;;;;;;7287543;19;20221;-79
2023/11/23 00:24:39;;;;;;;33.43;15.53;;;10.10;99.90;;;;;;7287273;19;20179;-79
2023/11/23 00:27:05;;;;;;;30.43;15.23;;;10.20;99.90;;;;;;7286825;19;20208;-79
2023/11/23 00:29:31;;;;;;;28.73;15.00;;;10.10;99.90;;;;;;7310276;19;20184;-79
2023/11/23 00:31:57;;;;;;;29.63;14.70;;;10.20;99.90;;;;;;7286459;19;20194;-79
2023/11/23 00:34:23;;;;;;;34.07;15.90;;;10.10;99.90;;;;;;7288157;19;20258;-79
2023/11/23 00:36:49;;;;;;;28.70;14.60;;;10.00;99.90;;;;;;7287550;19;20187;-79
2023/11/23 00:39:15;;;;;;;30.07;14.80;;;10.10;99.90;;;;;;7287120;19;20213;-79
2023/11/23 00:41:42;;;;;;;29.27;15.30;;;10.10;99.90;;;;;;7286356;19;20187;-78
2023/11/23 00:44:07;;;;;;;29.77;15.27;;;10.20;99.90;;;;;;7285403;19;20301;-79
2023/11/23 00:46:36;;;;;;;32.27;15.27;;;10.30;99.90;;;;;;7286186;19;20226;-78
2023/11/23 00:49:04;;;;;;;32.33;15.53;;;10.30;99.90;;;;;;7306437;19;20205;-79
2023/11/23 00:51:32;;;;;;;30.77;15.23;;;10.30;99.90;;;;;;7308247;19;20223;-79
2023/11/23 00:53:58;;;;;;;30.37;14.90;;;10.20;99.90;;;;;;7286418;19;20264;-79
2023/11/23 00:56:24;;;;;;;35.63;15.13;;;10.20;99.90;;;;;;7284487;19;20644;-79
2023/11/23 00:58:51;;;;;;;30.67;15.90;;;10.20;99.90;;;;;;7285278;19;20194;-79
2023/11/23 01:01:18;;;;;;;31.63;15.70;;;10.30;99.90;;;;;;7286138;19;20210;-78
2023/11/23 01:03:44;;;;;;;29.00;15.33;;;10.30;99.90;;;;;;7286775;19;20616;-79
2023/11/23 01:06:11;;;;;;;27.63;15.43;;;10.30;99.90;;;;;;7286507;19;20259;-79
2023/11/23 01:08:36;;;;;;;31.87;14.77;;;10.40;99.90;;;;;;7285842;19;20199;-79
2023/11/23 01:11:03;;;;;;;30.70;14.90;;;10.40;99.90;;;;;;7293791;19;20190;-78
2023/11/23 01:13:29;;;;;;;26.97;15.23;;;10.50;99.90;;;;;;7307952;19;20226;-79
2023/11/23 01:15:56;;;;;;;29.20;14.70;;;10.30;99.90;;;;;;7284969;19;20215;-79
2023/11/23 01:18:23;;;;;;;35.93;15.30;;;10.30;99.90;;;;;;7287067;19;20189;-79
2023/11/23 01:20:50;;;;;;;28.10;14.67;;;10.40;99.90;;;;;;7286497;19;20637;-79
2023/11/23 01:23:16;;;;;;;31.13;15.30;;;10.40;99.90;;;;;;7286328;19;20705;-78
2023/11/23 01:25:42;;;;;;;33.20;15.50;;;10.40;99.90;;;;;;7286306;19;20201;-79
2023/11/23 01:28:07;;;;;;;36.97;15.53;;;10.40;99.90;;;;;;7285736;19;20192;-79
2023/11/23 01:30:33;;;;;;;28.37;15.57;;;10.40;99.90;;;;;;7295239;19;20189;-79
2023/11/23 01:33:00;;;;;;;27.20;14.60;;;10.40;99.90;;;;;;7303161;19;20190;-79
2023/11/23 01:35:26;;;;;;;31.20;15.30;;;10.50;99.90;;;;;;7286004;19;20198;-79
2023/11/23 01:37:51;;;;;;;31.40;15.77;;;10.40;99.90;;;;;;7285036;19;20204;-79
2023/11/23 01:40:17;;;;;;;28.53;14.67;;;10.50;99.90;;;;;;7285960;19;20189;-79
2023/11/23 01:42:44;;;;;;;27.77;15.03;;;10.40;99.90;;;;;;7286472;19;20195;-78
2023/11/23 01:45:10;;;;;;;34.47;15.87;;;10.50;99.90;;;;;;7284563;19;20675;-79
2023/11/23 01:47:44;;;;;;;32.50;15.70;;;10.40;99.90;;;;;;7284809;19;20199;-79
2023/11/23 01:50:10;;;;;;;30.63;15.77;;;10.50;99.90;;;;;;7283465;19;20715;-79
2023/11/23 01:52:37;;;;;;;29.97;15.17;;;10.50;99.90;;;;;;7282406;19;20187;-79
2023/11/23 01:55:04;;;;;;;30.77;15.70;;;10.60;99.90;;;;;;7305547;19;20188;-79
2023/11/23 01:57:33;;;;;;;30.50;16.47;;;10.60;99.90;;;;;;7303502;19;20183;-79
2023/11/23 01:59:59;;;;;;;31.07;16.10;;;10.60;99.90;;;;;;7285965;19;20277;-79
2023/11/23 02:02:28;;;;;;;33.80;16.43;;;10.60;99.90;;;;;;7284479;19;20307;-79
2023/11/23 02:04:58;;;;;;;30.20;16.53;;;10.60;99.90;;;;;;7284495;19;20192;-79
2023/11/23 02:07:25;;;;;;;36.00;16.43;;;10.60;99.90;;;;;;7284948;19;20187;-79
2023/11/23 02:09:51;;;;;;;33.60;15.73;;;10.50;99.90;;;;;;7285216;19;20241;-79
2023/11/23 02:12:18;;;;;;;32.57;16.43;;;10.60;99.90;;;;;;7284977;19;20654;-79
2023/11/23 02:14:44;;;;;;;31.83;16.30;;;10.50;99.90;;;;;;7284985;19;20191;-79
2023/11/23 02:17:16;;;;;;;31.40;16.50;;;10.50;99.90;;;;;;7285833;19;20186;-79
2023/11/23 02:19:46;;;;;;;31.90;16.77;;;10.50;99.90;;;;;;7285376;19;20736;-79
2023/11/23 02:22:13;;;;;;;35.13;17.27;;;10.50;99.90;;;;;;7281824;19;20231;-79
2023/11/23 02:24:39;;;;;;;31.37;16.07;;;10.50;99.90;;;;;;7284267;19;20528;-79
2023/11/23 02:27:08;;;;;;;34.07;16.50;;;10.50;99.90;;;;;;7283289;19;20187;-78
2023/11/23 02:29:34;;;;;;;36.10;16.13;;;10.60;99.90;;;;;;7291372;19;20258;-79
2023/11/23 02:32:10;;;;;;;32.77;16.80;;;10.60;99.90;;;;;;7306338;19;20300;-79
2023/11/23 02:34:38;;;;;;;30.80;15.83;;;10.60;99.90;;;;;;7262948;19;20337;-79
2023/11/23 02:37:04;;;;;;;35.60;16.70;;;10.70;99.90;;;;;;7293653;19;20187;-78
2023/11/23 02:39:31;;;;;;;33.37;16.87;;;10.60;99.90;;;;;;7306643;19;20585;-79
2023/11/23 02:41:58;;;;;;;32.87;16.77;;;10.70;99.90;;;;;;7284294;19;20598;-79
2023/11/23 02:44:24;;;;;;;29.63;16.37;;;10.70;99.90;;;;;;7282964;19;20220;-79
2023/11/23 02:46:50;;;;;;;37.30;16.33;;;10.70;99.90;;;;;;7282615;19;20194;-79
2023/11/23 02:49:18;;;;;;;32.60;17.07;;;10.70;99.90;;;;;;7282662;19;20195;-79
2023/11/23 02:51:45;;;;;;;34.80;17.30;;;10.70;99.90;;;;;;7282016;19;20251;-78
2023/11/23 02:54:10;;;;;;;39.17;17.87;;;10.80;99.90;;;;;;7283877;19;20262;-79
2023/11/23 02:56:36;;;;;;;31.60;17.27;;;10.70;99.90;;;;;;7283669;19;20220;-78
2023/11/23 02:59:03;;;;;;;34.57;16.87;;;10.60;99.90;;;;;;7305101;19;20648;-79
2023/11/23 03:01:32;;;;;;;33.60;17.03;;;10.60;99.90;;;;;;7283160;19;20224;-79
2023/11/23 03:03:58;;;;;;;30.87;16.60;;;10.60;99.90;;;;;;7283287;19;20199;-79
2023/11/23 03:06:24;;;;;;;33.20;17.47;;;10.60;99.90;;;;;;7281682;19;20179;-78
2023/11/23 03:08:51;;;;;;;37.20;17.70;;;10.60;99.90;;;;;;7281623;19;20191;-79
2023/11/23 03:11:25;;;;;;;34.80;17.93;;;10.70;99.90;;;;;;7282371;19;20188;-79
2023/11/23 03:13:52;;;;;;;36.27;17.60;;;10.60;99.90;;;;;;7282725;19;20202;-79
2023/11/23 03:16:20;;;;;;;35.20;17.97;;;10.70;99.90;;;;;;7281286;19;20213;-79
2023/11/23 03:18:46;;;;;;;35.50;18.57;;;10.60;99.90;;;;;;7281954;19;20199;-79
2023/11/23 03:21:12;;;;;;;36.47;18.57;;;10.60;99.90;;;;;;7282033;19;20183;-79
2023/11/23 03:23:38;;;;;;;39.37;19.57;;;10.60;99.90;;;;;;7280672;19;20195;-79
2023/11/23 03:26:04;;;;;;;36.60;19.33;;;10.60;99.90;;;;;;7293588;19;20191;-79
2023/11/23 03:28:30;;;;;;;38.60;19.87;;;10.60;99.90;;;;;;7301198;19;20192;-78
2023/11/23 03:30:56;;;;;;;36.47;20.90;;;10.70;99.90;;;;;;7281891;19;20283;-79
2023/11/23 03:33:22;;;;;;;40.70;21.07;;;10.70;99.90;;;;;;7281128;19;20250;-79
2023/11/23 03:35:50;;;;;;;35.50;21.10;;;10.70;99.90;;;;;;7282501;19;20192;-79
2023/11/23 03:38:16;;;;;;;36.63;20.10;;;10.60;99.90;;;;;;7280093;19;20188;-79
2023/11/23 03:40:42;;;;;;;39.47;20.67;;;10.70;99.90;;;;;;7282399;19;20198;-79
2023/11/23 03:43:09;;;;;;;39.33;20.23;;;10.70;99.90;;;;;;7281922;19;20542;-79
2023/11/23 03:45:35;;;;;;;43.33;20.77;;;10.60;99.90;;;;;;7279485;19;20640;-79
2023/11/23 03:48:01;;;;;;;39.53;20.67;;;10.60;99.90;;;;;;7301615;19;20187;-79
2023/11/23 03:50:27;;;;;;;36.60;20.53;;;10.70;99.90;;;;;;7279891;19;20274;-79
2023/11/23 03:52:53;;;;;;;40.13;20.33;;;10.60;99.90;;;;;;7280159;19;20204;-79
2023/11/23 03:55:19;;;;;;;41.47;21.03;;;10.60;99.90;;;;;;7279789;19;20617;-79
2023/11/23 03:57:48;;;;;;;39.70;20.50;;;10.70;99.90;;;;;;7279141;19;20245;-79
2023/11/23 04:00:22;;;;;;;40.87;20.13;;;10.70;99.90;;;;;;7279091;19;20218;-79
2023/11/23 04:02:48;;;;;;;40.37;21.73;;;10.70;99.90;;;;;;7280853;19;20198;-79
2023/11/23 04:05:20;;;;;;;40.70;20.97;;;10.70;99.90;;;;;;7281134;19;20649;-79
2023/11/23 04:07:46;;;;;;;39.83;19.73;;;10.60;99.90;;;;;;7280711;19;20191;-80
2023/11/23 04:10:13;;;;;;;39.93;19.80;;;10.70;99.90;;;;;;7281349;19;20196;-79
2023/11/23 04:12:38;;;;;;;38.47;21.07;;;10.70;99.90;;;;;;7279823;19;20194;-79
2023/11/23 04:15:05;;;;;;;40.67;21.50;;;10.70;99.90;;;;;;7285291;19;20565;-78
2023/11/23 04:17:31;;;;;;;44.93;22.23;;;10.80;99.90;;;;;;7301612;19;20192;-79
2023/11/23 04:19:56;;;;;;;37.70;20.70;;;10.80;99.90;;;;;;7282866;19;20194;-79
2023/11/23 04:22:22;;;;;;;48.20;21.53;;;10.80;99.90;;;;;;7287507;19;21109;-79
2023/11/23 04:24:48;;;;;;;39.23;20.83;;;10.80;99.90;;;;;;7289251;19;20203;-79
2023/11/23 04:27:14;;;;;;;36.57;20.33;;;10.70;99.90;;;;;;7286739;19;20191;-79
2023/11/23 04:29:41;;;;;;;41.93;20.30;;;10.60;99.90;;;;;;7286536;19;20275;-79
2023/11/23 04:32:07;;;;;;;43.03;20.47;;;10.70;99.90;;;;;;7287453;19;20544;-79
2023/11/23 04:34:33;;;;;;;39.27;20.57;;;10.70;99.90;;;;;;7308142;19;20649;-79
2023/11/23 04:36:59;;;;;;;44.13;20.23;;;10.70;99.90;;;;;;7305314;19;20532;-79
2023/11/23 04:39:25;;;;;;;42.80;20.17;;;10.70;99.90;;;;;;7284224;19;20195;-79
2023/11/23 04:41:51;;;;;;;45.90;20.77;;;10.80;99.90;;;;;;7287857;19;21105;-79
2023/11/23 04:44:17;;;;;;;43.93;20.47;;;10.80;99.90;;;;;;7285595;19;20689;-79
2023/11/23 04:46:43;;;;;;;37.93;20.50;;;10.80;99.90;;;;;;7285299;19;20662;-78
2023/11/23 04:49:08;;;;;;;43.33;20.40;;;10.70;99.90;;;;;;7287129;19;20288;-79
2023/11/23 04:51:34;;;;;;;44.90;20.10;;;10.80;99.90;;;;;;7294483;19;20853;-79
2023/11/23 04:54:00;;;;;;;35.30;19.90;;;10.80;99.90;;;;;;7309672;19;20250;-78
2023/11/23 04:56:26;;;;;;;36.67;19.60;;;10.90;99.90;;;;;;7287950;19;20198;-79
2023/11/23 04:58:51;;;;;;;38.57;19.70;;;10.90;99.90;;;;;;7285881;19;20192;-79
2023/11/23 05:01:17;;;;;;;37.97;19.33;;;10.90;99.90;;;;;;7286050;19;20197;-79
2023/11/23 05:03:43;;;;;;;44.20;24.70;;;10.90;99.90;;;;;;7285006;19;20847;-79
2023/11/23 05:06:09;;;;;;;37.57;20.47;;;10.70;99.90;;;;;;7284539;19;20195;-79
2023/11/23 05:08:36;;;;;;;38.77;20.13;;;10.80;99.90;;;;;;7292309;19;20209;-80
2023/11/23 05:11:03;;;;;;;36.50;19.07;;;10.80;99.90;;;;;;7307602;19;20235;-79
2023/11/23 05:13:29;;;;;;;36.10;18.93;;;10.90;99.90;;;;;;7285319;19;20192;-79
2023/11/23 05:15:54;;;;;;;36.60;18.93;;;11.00;99.90;;;;;;7286023;19;20191;-79
2023/11/23 05:18:20;;;;;;;35.53;18.10;;;11.00;99.90;;;;;;7286348;19;20623;-79
2023/11/23 05:20:46;;;;;;;31.50;17.83;;;11.00;99.90;;;;;;7285244;19;20203;-79
2023/11/23 05:23:11;;;;;;;36.83;18.03;;;11.00;99.90;;;;;;7286115;19;20195;-79
2023/11/23 05:25:37;;;;;;;34.43;17.23;;;11.00;99.90;;;;;;7284616;19;20192;-79
2023/11/23 05:28:03;;;;;;;38.40;17.90;;;11.00;99.90;;;;;;7307947;19;20267;-79
2023/11/23 05:30:29;;;;;;;32.07;16.87;;;11.10;99.90;;;;;;7286447;19;20177;-79
2023/11/23 05:32:55;;;;;;;32.57;18.00;;;11.00;99.90;;;;;;7286180;19;20520;-79
2023/11/23 05:35:20;;;;;;;33.03;17.03;;;11.00;99.90;;;;;;7286682;19;20192;-78
2023/11/23 05:37:46;;;;;;;31.57;15.83;;;11.10;99.90;;;;;;7284504;19;20573;-79
2023/11/23 05:40:13;;;;;;;31.87;16.03;;;11.10;99.90;;;;;;7285076;19;20209;-78
2023/11/23 05:42:39;;;;;;;36.27;16.77;;;11.20;99.90;;;;;;7283172;19;20604;-78
2023/11/23 05:45:06;;;;;;;29.77;16.87;;;11.20;99.90;;;;;;7285825;19;20199;-79
2023/11/23 05:47:32;;;;;;;35.20;16.70;;;11.20;99.90;;;;;;7306881;19;20248;-79
2023/11/23 05:50:01;;;;;;;31.80;17.07;;;11.30;99.90;;;;;;7285993;19;20676;-79
2023/11/23 05:52:28;;;;;;;26.80;15.03;;;11.20;99.90;;;;;;7284940;19;20514;-80
2023/11/23 05:54:56;;;;;;;30.13;15.50;;;11.20;99.90;;;;;;7285639;19;20233;-79
2023/11/23 05:57:25;;;;;;;31.87;15.73;;;11.30;99.90;;;;;;7284977;19;20195;-79
2023/11/23 05:59:52;;;;;;;31.13;15.53;;;11.30;99.90;;;;;;7285834;19;20181;-79
2023/11/23 06:02:18;;;;;;;29.73;14.60;;;11.20;99.90;;;;;;7282242;19;20203;-78
2023/11/23 06:04:47;;;;;;;32.73;16.50;;;11.20;99.90;;;;;;7285304;19;20189;-79
2023/11/23 06:07:14;;;;;;;30.00;14.13;;;11.20;99.90;;;;;;7284852;19;20611;-79
2023/11/23 06:09:44;;;;;;;29.57;14.37;;;11.30;99.90;;;;;;7283977;19;20194;-78
2023/11/23 06:12:09;;;;;;;27.87;13.73;;;11.20;99.90;;;;;;7285178;19;20187;-79
2023/11/23 06:14:39;;;;;;;27.97;13.60;;;11.20;99.90;;;;;;7285113;19;20717;-79
2023/11/23 06:17:09;;;;;;;32.53;14.70;;;11.20;99.90;;;;;;7294127;19;20191;-79
2023/11/23 06:19:35;;;;;;;26.13;14.10;;;11.30;99.90;;;;;;7286351;19;20220;-79
2023/11/23 06:22:01;;;;;;;27.50;13.43;;;11.40;99.90;;;;;;7305184;19;20184;-78
2023/11/23 06:24:27;;;;;;;29.93;13.80;;;11.40;99.90;;;;;;7286444;19;20669;-78
2023/11/23 06:26:53;;;;;;;27.33;13.70;;;11.40;99.90;;;;;;7281593;19;20194;-80
2023/11/23 06:29:18;;;;;;;27.13;13.07;;;11.30;99.90;;;;;;7282660;19;20183;-77
2023/11/23 06:31:44;;;;;;;27.07;13.77;;;11.30;99.90;;;;;;7284542;19;20196;-79
2023/11/23 06:34:10;;;;;;;28.47;13.67;;;11.30;99.90;;;;;;7284402;19;20187;-79
2023/11/23 06:36:38;;;;;;;29.13;13.27;;;11.40;99.90;;;;;;7283039;19;20192;-79
2023/11/23 06:39:04;;;;;;;26.73;13.03;;;11.40;99.90;;;;;;7299829;19;20743;-79
2023/11/23 06:41:31;;;;;;;24.23;13.10;;;11.40;99.90;;;;;;7302398;19;20508;-79
2023/11/23 06:43:56;;;;;;;23.87;12.50;;;11.40;99.90;;;;;;7280959;19;20204;-79
2023/11/23 06:46:22;;;;;;;25.27;12.90;;;11.40;99.90;;;;;;7281807;19;20232;-79
2023/11/23 06:48:48;;;;;;;25.97;12.10;;;11.40;99.90;;;;;;7281478;19;20253;-79
2023/11/23 06:51:14;;;;;;;22.40;11.57;;;11.50;99.90;;;;;;7281645;19;20191;-79
2023/11/23 06:53:44;;;;;;;23.93;11.33;;;11.50;99.90;;;;;;7282775;19;20814;-79
2023/11/23 06:56:12;;;;;;;25.20;12.80;;;11.50;99.90;;;;;;7284344;19;20231;-79
2023/11/23 06:58:41;;;;;;;23.50;11.67;;;11.60;99.90;;;;;;7283013;19;20215;-79
2023/11/23 07:01:10;;;;;;;24.17;12.00;;;11.60;99.90;;;;;;7282868;19;20187;-79
2023/11/23 07:03:37;;;;;;;25.20;11.97;;;11.60;99.90;;;;;;7280989;19;20552;-79
2023/11/23 07:06:04;;;;;;;23.40;11.27;;;11.60;99.90;;;;;;7303883;19;20647;-79
2023/11/23 07:08:30;;;;;;;27.00;11.77;;;11.60;99.90;;;;;;7283730;19;20196;-79
2023/11/23 07:10:57;;;;;;;22.53;11.40;;;11.60;99.90;;;;;;7283625;19;20227;-79
2023/11/23 07:13:23;;;;;;;23.43;11.67;;;11.60;99.90;;;;;;7282994;19;20189;-79
2023/11/23 07:15:49;;;;;;;23.03;11.47;;;11.60;99.90;;;;;;7282715;19;20194;-78
2023/11/23 07:18:14;;;;;;;26.83;11.83;;;11.60;99.90;;;;;;7283045;19;20252;-78
2023/11/23 07:20:41;;;;;;;24.30;11.13;;;11.60;99.90;;;;;;7281950;19;20211;-78
2023/11/23 07:23:07;;;;;;;24.87;10.93;;;11.70;99.90;;;;;;7281932;19;20209;-78
2023/11/23 07:25:34;;;;;;;21.27;10.33;;;11.60;99.90;;;;;;7303393;19;20200;-78
2023/11/23 07:28:00;;;;;;;22.33;10.73;;;11.70;99.90;;;;;;7280261;19;20185;-79
2023/11/23 07:30:25;;;;;;;20.20;10.57;;;11.70;99.90;;;;;;7280238;19;20192;-78
2023/11/23 07:32:51;;;;;;;23.03;10.37;;;11.70;99.90;;;;;;7282205;19;20546;-78
2023/11/23 07:35:17;;;;;;;24.37;10.30;;;11.60;99.90;;;;;;7282428;19;20614;-78
2023/11/23 07:37:43;;;;;;;22.37;10.07;;;11.70;99.90;;;;;;7282448;19;20562;-78
2023/11/23 07:40:12;;;;;;;20.03;10.30;;;11.70;99.90;;;;;;7281321;19;20206;-78
2023/11/23 07:42:42;;;;;;;19.40;9.83;;;11.70;99.90;;;;;;7282564;19;20185;-78
2023/11/23 07:45:08;;;;;;;19.90;8.93;;;11.80;99.90;;;;;;7279603;19;20196;-78
2023/11/23 07:47:35;;;;;;;17.10;9.63;;;11.80;99.90;;;;;;7295484;19;20185;-78
2023/11/23 07:50:00;;;;;;;23.10;10.23;;;11.80;99.90;;;;;;7303674;19;20256;-78
2023/11/23 07:52:26;;;;;;;23.73;9.50;;;11.80;99.90;;;;;;7282021;19;20181;-78
2023/11/23 07:54:52;;;;;;;20.13;9.20;;;12.00;99.90;;;;;;7284121;19;20199;-78
2023/11/23 07:57:22;;;;;;;20.47;9.33;;;12.00;99.90;;;;;;7287771;19;20208;-78
2023/11/23 07:59:48;;;;;;;20.00;9.10;;;12.00;99.90;;;;;;7287585;19;20529;-78
2023/11/23 08:02:14;;;;;;;17.17;8.77;;;12.10;99.90;;;;;;7288184;19;20248;-78
2023/11/23 08:04:40;;;;;;;19.20;8.53;;;12.10;99.90;;;;;;7289416;19;20227;-78
2023/11/23 08:07:06;;;;;;;20.20;8.73;;;12.10;99.90;;;;;;7288425;19;20192;-79
2023/11/23 08:09:31;;;;;;;22.97;9.07;;;12.10;99.90;;;;;;7310191;19;20279;-78
2023/11/23 08:11:57;;;;;;;21.30;8.80;;;12.10;99.90;;;;;;7287527;19;20603;-78
2023/11/23 08:14:23;;;;;;;16.50;8.17;;;12.20;99.90;;;;;;7288455;19;20185;-78
2023/11/23 08:16:49;;;;;;;18.10;8.47;;;12.10;99.90;;;;;;7288920;19;20188;-79
2023/11/23 08:19:15;;;;;;;18.63;8.10;;;12.10;99.90;;;;;;7289138;19;20529;-78
2023/11/23 08:21:41;;;;;;;18.07;7.67;;;12.10;99.90;;;;;;7287870;19;20181;-79
2023/11/23 08:24:08;;;;;;;20.07;7.90;;;12.10;99.90;;;;;;7288566;19;20188;-78
2023/11/23 08:26:34;;;;;;;20.17;7.57;;;12.00;99.90;;;;;;7308541;19;20181;-78
2023/11/23 08:29:00;;;;;;;17.43;7.90;;;12.00;99.90;;;;;;7287952;19;20212;-78
2023/11/23 08:31:28;;;;;;;17.37;7.07;;;12.10;99.90;;;;;;7287380;19;20537;-78
2023/11/23 08:33:57;;;;;;;17.47;7.37;;;12.10;99.90;;;;;;7286847;19;20221;-78
2023/11/23 08:36:22;;;;;;;17.17;8.23;;;12.10;99.90;;;;;;7286311;19;20188;-79
2023/11/23 08:38:51;;;;;;;19.50;7.43;;;12.20;99.90;;;;;;7286496;19;20196;-78
2023/11/23 08:41:18;;;;;;;19.10;7.83;;;12.30;99.90;;;;;;7285900;19;20642;-80
2023/11/23 08:43:47;;;;;;;20.43;8.57;;;12.30;99.90;;;;;;7286819;19;20260;-78
2023/11/23 08:46:14;;;;;;;19.80;10.13;;;12.40;99.90;;;;;;7287355;19;20197;-80
2023/11/23 08:48:40;;;;;;;19.43;10.07;;;12.40;99.90;;;;;;7286648;19;20193;-78
2023/11/23 08:51:06;;;;;;;21.50;10.07;;;12.40;99.90;;;;;;7287666;19;20189;-79
2023/11/23 08:53:32;;;;;;;24.03;10.50;;;12.40;99.90;;;;;;7309674;19;20691;-82
2023/11/23 08:55:58;;;;;;;18.57;9.20;;;12.40;99.90;;;;;;7286017;19;20277;-79
2023/11/23 08:58:24;;;;;;;19.40;9.67;;;12.50;99.90;;;;;;7287023;19;20208;-78
2023/11/23 09:00:50;;;;;;;19.93;9.83;;;12.50;99.90;;;;;;7288245;19;20189;-79
2023/11/23 09:03:15;;;;;;;21.13;8.90;;;12.60;99.90;;;;;;7286816;19;20196;-79
2023/11/23 09:05:41;;;;;;;17.23;8.17;;;12.60;99.90;;;;;;7283352;19;20201;-79
2023/11/23 09:08:07;;;;;;;17.67;8.83;;;12.60;99.90;;;;;;7285243;19;20189;-79
2023/11/23 09:10:33;;;;;;;17.83;9.20;;;12.60;99.90;;;;;;7307477;19;20188;-79
2023/11/23 09:13:01;;;;;;;14.43;7.50;;;12.60;99.90;;;;;;7286188;19;20185;-79
2023/11/23 09:15:33;;;;;;;18.77;7.93;;;12.80;99.90;;;;;;7284831;19;20277;-79
2023/11/23 09:17:58;;;;;;;16.30;7.47;;;12.80;99.90;;;;;;7285799;19;20581;-79
2023/11/23 09:20:24;;;;;;;16.50;7.20;;;12.80;99.90;;;;;;7287233;19;20201;-78
2023/11/23 09:22:50;;;;;;;17.10;6.50;;;12.90;99.90;;;;;;7286091;19;20189;-80
2023/11/23 09:25:16;;;;;;;17.03;6.30;;;12.80;99.90;;;;;;7287237;19;20191;-78
2023/11/23 09:27:44;;;;;;;15.57;6.07;;;12.80;99.90;;;;;;7284327;19;20842;-80
2023/11/23 09:30:11;;;;;;;15.17;5.90;;;12.80;99.90;;;;;;7284413;19;20203;-79
2023/11/23 09:32:38;;;;;;;15.77;5.83;;;12.60;99.90;;;;;;7285441;19;20178;-79
2023/11/23 09:35:06;;;;;;;16.27;5.90;;;12.70;99.90;;;;;;7308659;19;20644;-79
2023/11/23 09:37:32;;;;;;;14.50;4.97;;;12.60;99.90;;;;;;7284364;19;20298;-79
2023/11/23 09:39:58;;;;;;;13.77;5.30;;;12.70;99.90;;;;;;7284582;19;20241;-79
2023/11/23 09:42:26;;;;;;;12.17;4.77;;;12.60;99.90;;;;;;7285354;19;20206;-79
2023/11/23 09:44:56;;;;;;;15.63;5.30;;;12.60;99.90;;;;;;7284091;19;20257;-78
2023/11/23 09:47:30;;;;;;;13.70;5.10;;;12.70;99.90;;;;;;7286774;19;20193;-79
2023/11/23 09:49:56;;;;;;;17.30;4.57;;;12.80;99.90;;;;;;7286748;19;20190;-78
2023/11/23 09:52:23;;;;;;;16.37;4.77;;;12.90;99.90;;;;;;7283266;19;20201;-79
2023/11/23 09:54:48;;;;;;;17.97;5.03;;;13.00;99.90;;;;;;7285241;19;20224;-79
2023/11/23 09:57:14;;;;;;;18.17;5.60;;;13.00;99.90;;;;;;7283848;19;20185;-79
2023/11/23 09:59:40;;;;;;;15.93;5.00;;;13.00;99.90;;;;;;7286205;19;20193;-79
2023/11/23 10:02:09;;;;;;;13.73;4.40;;;13.00;99.90;;;;;;7292093;19;20190;-79
2023/11/23 10:04:35;;;;;;;17.50;4.87;;;13.10;99.90;;;;;;7296941;19;20700;-79
2023/11/23 10:07:01;;;;;;;16.30;4.83;;;13.20;99.90;;;;;;7303014;19;20184;-79
2023/11/23 10:09:31;;;;;;;13.13;4.63;;;13.30;99.90;;;;;;7284900;19;20178;-79
2023/11/23 10:11:58;;;;;;;14.83;4.47;;;13.40;99.90;;;;;;7285790;19;20657;-79
2023/11/23 10:14:24;;;;;;;13.77;5.30;;;13.20;99.90;;;;;;7284971;19;20510;-79
2023/11/23 10:16:50;;;;;;;15.33;4.97;;;13.10;99.90;;;;;;7283782;19;20252;-79
2023/11/23 10:19:20;;;;;;;15.27;4.40;;;13.20;99.90;;;;;;7283997;19;20210;-79
2023/11/23 10:21:45;;;;;;;17.57;4.23;;;13.30;99.90;;;;;;7284083;19;20528;-78
2023/11/23 10:24:13;;;;;;;16.40;4.60;;;13.30;99.90;;;;;;7284330;19;20189;-79
2023/11/23 10:26:39;;;;;;;14.10;4.80;;;13.40;99.90;;;;;;7282900;19;20178;-79
2023/11/23 10:29:05;;;;;;;16.50;4.63;;;13.50;99.90;;;;;;7303502;19;20186;-79
2023/11/23 10:31:31;;;;;;;14.87;4.60;;;13.40;99.90;;;;;;7306467;19;20262;-79
2023/11/23 10:33:58;;;;;;;13.27;4.40;;;13.30;99.90;;;;;;7283533;19;20189;-79
2023/11/23 10:36:25;;;;;;;13.03;4.53;;;13.20;99.90;;;;;;7283958;19;20661;-79
2023/11/23 10:38:56;;;;;;;13.63;4.37;;;13.30;99.90;;;;;;7284677;19;20190;-79
2023/11/23 10:41:22;;;;;;;16.30;4.60;;;13.40;99.90;;;;;;7283739;19;20202;-79
2023/11/23 10:43:49;;;;;;;13.37;4.50;;;13.60;99.90;;;;;;7283282;19;20189;-79
2023/11/23 10:46:18;;;;;;;14.97;4.37;;;13.60;99.90;;;;;;7283148;19;20679;-79
2023/11/23 10:48:45;;;;;;;18.33;4.83;;;13.70;99.90;;;;;;7283497;19;20215;-79
2023/11/23 10:51:11;;;;;;;16.53;3.97;;;13.70;99.90;;;;;;7282621;19;20189;-79
2023/11/23 10:53:41;;;;;;;14.47;4.67;;;13.80;99.90;;;;;;7285761;19;20187;-80
2023/11/23 10:56:20;;;;;;;16.30;4.20;;;13.70;99.90;;;;;;7290174;19;20640;-79
2023/11/23 10:58:49;;;;;;;12.13;4.10;;;13.70;99.90;;;;;;7282232;19;20201;-80
2023/11/23 11:01:21;;;;;;;12.87;4.07;;;13.80;99.90;;;;;;7280923;19;20216;-80
2023/11/23 11:03:48;;;;;;;19.50;5.03;;;13.70;99.90;;;;;;7282049;19;20710;-79
2023/11/23 11:06:17;;;;;;;19.57;4.77;;;13.70;99.90;;;;;;7283574;19;20678;-79
2023/11/23 11:08:45;;;;;;;15.57;4.30;;;13.80;99.90;;;;;;7281629;19;20189;-78
2023/11/23 11:11:12;;;;;;;15.27;4.63;;;13.80;99.90;;;;;;7283206;19;20189;-78
2023/11/23 11:13:45;;;;;;;11.40;4.20;;;13.80;99.90;;;;;;7282956;19;20183;-78
2023/11/23 11:16:15;;;;;;;13.23;3.97;;;13.90;99.90;;;;;;7275569;19;20210;-78
2023/11/23 11:18:50;;;;;;;11.43;4.20;;;13.80;99.90;;;;;;7281726;19;20599;-78
2023/11/23 11:21:20;;;;;;;9.53;4.13;;;13.90;99.90;;;;;;7282671;19;20200;-78
2023/11/23 11:23:51;;;;;;;12.10;4.00;;;14.00;99.90;;;;;;7281864;19;20192;-77
2023/11/23 11:26:30;;;;;;;14.33;4.20;;;14.20;99.90;;;;;;7283828;19;20198;-79
2023/11/23 11:28:58;;;;;;;18.67;4.00;;;14.20;99.90;;;;;;7283709;19;20196;-78
2023/11/23 11:31:36;;;;;;;15.77;4.07;;;14.30;99.90;;;;;;7289719;19;20198;-78
2023/11/23 11:34:14;;;;;;;12.50;3.57;;;14.40;99.90;;;;;;7289074;19;20557;-78
2023/11/23 11:36:43;;;;;;;10.63;3.63;;;14.50;99.90;;;;;;7268688;19;20259;-79
2023/11/23 11:39:10;;;;;;;11.50;3.70;;;14.60;99.90;;;;;;7287597;19;20205;-79
2023/11/23 11:41:38;;;;;;;9.20;3.67;;;14.70;99.90;;;;;;7297025;19;20191;-78
2023/11/23 11:44:05;;;;;;;14.97;4.27;;;14.50;99.90;;;;;;7310944;19;20300;-79
2023/11/23 11:46:35;;;;;;;11.00;3.60;;;14.50;99.90;;;;;;7288704;19;20196;-78
2023/11/23 11:49:01;;;;;;;12.67;3.80;;;14.60;99.90;;;;;;7288240;19;20645;-79
2023/11/23 11:51:29;;;;;;;12.87;3.50;;;14.40;99.90;;;;;;7288546;19;20180;-79
2023/11/23 11:53:56;;;;;;;11.33;3.77;;;14.30;99.90;;;;;;7289440;19;20198;-79
2023/11/23 11:56:24;;;;;;;11.20;3.40;;;14.40;99.90;;;;;;7289063;19;20187;-78
2023/11/23 11:58:51;;;;;;;13.77;3.47;;;14.40;99.90;;;;;;7288348;19;20193;-79
2023/11/23 12:01:17;;;;;;;9.33;3.60;;;14.50;99.90;;;;;;7286270;19;20193;-79
2023/11/23 12:03:45;;;;;;;10.73;3.40;;;14.40;99.90;;;;;;7288025;19;20666;-79
2023/11/23 12:06:10;;;;;;;12.03;3.27;;;14.30;99.90;;;;;;7288560;19;20197;-79
2023/11/23 12:08:37;;;;;;;8.83;3.43;;;14.30;99.90;;;;;;7301107;19;20194;-79
2023/11/23 12:11:05;;;;;;;13.07;3.53;;;14.40;99.90;;;;;;7311284;19;20211;-79
2023/11/23 12:13:34;;;;;;;9.40;3.27;;;14.50;99.90;;;;;;7289815;19;20190;-79
2023/11/23 12:16:00;;;;;;;12.73;3.70;;;14.30;99.90;;;;;;7289794;19;20615;-78
2023/11/23 12:18:36;;;;;;;12.00;3.47;;;14.40;99.90;;;;;;7287859;19;20198;-79
2023/11/23 12:21:06;;;;;;;15.20;3.30;;;14.40;99.90;;;;;;7285491;19;20202;-79
2023/11/23 12:23:43;;;;;;;13.70;3.47;;;14.50;99.90;;;;;;7287325;19;20196;-79
2023/11/23 12:26:10;;;;;;;10.37;3.20;;;14.50;99.90;;;;;;7263828;19;20197;-79
2023/11/23 12:28:37;;;;;;;15.30;3.30;;;14.30;99.90;;;;;;7303790;19;20190;-79